sensor_id;sensor_type;location;lat;lon;timestamp;temperature;humidity
1107;DHT22;540;49.448;8.612;2023-11-19T00:00:32;9.00;99.90
1107;DHT22;540;49.448;8.612;2023-11-19T00:03:00;9.30;99.90
1107;DHT22;540;49.448;8.612;2023-11-19T00:05:28;9.10;99.90
1107;DHT22;540;49.448;8.612;2023-11-19T00:07:56;9.10;99.90
1107;DHT22;540;49.448;8.612;2023-11-19T00:10:25;8.90;99.90
1107;DHT22;540;49.448;8.612;2023-11-19T00:12:53;9.30;99.90
1107;DHT22;540;49.448;8.612;2023-11-19T00:15:23;9.30;99.90
1107;DHT22;540;49.448;8.612;2023-11-19T00:17:52;9.10;99.90
1107;DHT22;540;49.448;8.612;2023-11-19T00:20:21;9.10;99.90
1107;DHT22;540;49.448;8.612;2023-11-19T00:22:49;9.00;99.90
1107;DHT22;540;49.448;8.612;2023-11-19T00:25:19;9.50;99.90
1107;DHT22;540;49.448;8.612;2023-11-19T00:27:49;9.20;99.90
1107;DHT22;540;49.448;8.612;2023-11-19T00:30:18;9.20;99.90
1107;DHT22;540;49.448;8.612;2023-11-19T00:32:46;9.30;99.90
1107;DHT22;540;49.448;8.612;2023-11-19T00:35:14;9.30;99.90
1107;DHT22;540;49.448;8.612;2023-11-19T00:37:44;9.20;99.90
1107;DHT22;540;49.448;8.612;2023-11-19T00:40:14;9.50;99.90
1107;DHT22;540;49.448;8.612;2023-11-19T00:42:43;9.40;99.90
1107;DHT22;540;49.448;8.612;2023-11-19T00:45:12;9.40;99.90
1107;DHT22;540;49.448;8.612;2023-11-19T00:47:41;9.40;99.90
1107;DHT22;540;49.448;8.612;2023-11-19T00:50:09;9.20;99.90
1107;DHT22;540;49.448;8.612;2023-11-19T00:52:38;9.40;99.90
1107;DHT22;540;49.448;8.612;2023-11-19T00:55:06;9.40;99.90
1107;DHT22;540;49.448;8.612;2023-11-19T00:57:35;9.60;99.90
1107;DHT22;540;49.448;8.612;2023-11-19T01:00:04;9.60;99.90
1107;DHT22;540;49.448;8.612;2023-11-19T01:02:37;9.70;99.90
1107;DHT22;540;49.448;8.612;2023-11-19T01:05:08;9.40;99.90
1107;DHT22;540;49.448;8.612;2023-11-19T01:07:36;9.30;99.90
1107;DHT22;540;49.448;8.612;2023-11-19T01:10:06;9.50;99.90
1107;DHT22;540;49.448;8.612;2023-11-19T01:12:35;8.80;99.90
1107;DHT22;540;49.448;8.612;2023-11-19T01:15:05;9.30;99.90
1107;DHT22;540;49.448;8.612;2023-11-19T01:17:33;9.10;99.90
1107;DHT22;540;49.448;8.612;2023-11-19T01:20:02;9.50;99.90
1107;DHT22;540;49.448;8.612;2023-11-19T01:22:33;9.50;99.90
1107;DHT22;540;49.448;8.612;2023-11-19T01:25:02;9.60;99.90
1107;DHT22;540;49.448;8.612;2023-11-19T01:27:32;9.50;99.90
1107;DHT22;540;49.448;8.612;2023-11-19T01:30:02;9.40;99.90
1107;DHT22;540;49.448;8.612;2023-11-19T01:32:30;9.10;99.90
1107;DHT22;540;49.448;8.612;2023-11-19T01:34:58;9.70;99.90
1107;DHT22;540;49.448;8.612;2023-11-19T01:37:28;9.70;99.90
1107;DHT22;540;49.448;8.612;2023-11-19T01:39:56;9.50;99.90
1107;DHT22;540;49.448;8.612;2023-11-19T01:42:25;9.80;99.90
1107;DHT22;540;49.448;8.612;2023-11-19T01:44:58;9.50;99.90
1107;DHT22;540;49.448;8.612;2023-11-19T01:47:27;9.50;99.90
1107;DHT22;540;49.448;8.612;2023-11-19T01:49:56;9.70;99.90
1107;DHT22;540;49.448;8.612;2023-11-19T01:52:25;9.60;99.90
1107;DHT22;540;49.448;8.612;2023-11-19T01:54:55;9.80;99.90
1107;DHT22;540;49.448;8.612;2023-11-19T01:57:23;9.70;99.90
1107;DHT22;540;49.448;8.612;2023-11-19T01:59:52;9.70;99.90
1107;DHT22;540;49.448;8.612;2023-11-19T02:02:21;9.70;99.90
1107;DHT22;540;49.448;8.612;2023-11-19T02:04:49;9.70;99.90
1107;DHT22;540;49.448;8.612;2023-11-19T02:07:18;9.70;99.90
1107;DHT22;540;49.448;8.612;2023-11-19T02:09:47;9.70;99.90
1107;DHT22;540;49.448;8.612;2023-11-19T02:12:16;9.80;99.90
1107;DHT22;540;49.448;8.612;2023-11-19T02:14:44;9.80;99.90
1107;DHT22;540;49.448;8.612;2023-11-19T02:17:25;9.80;99.90
1107;DHT22;540;49.448;8.612;2023-11-19T02:19:54;10.00;99.90
1107;DHT22;540;49.448;8.612;2023-11-19T02:22:22;9.90;99.90
1107;DHT22;540;49.448;8.612;2023-11-19T02:24:54;9.90;99.90
1107;DHT22;540;49.448;8.612;2023-11-19T02:27:31;9.80;99.90
1107;DHT22;540;49.448;8.612;2023-11-19T02:30:02;10.00;99.90
1107;DHT22;540;49.448;8.612;2023-11-19T02:32:32;9.90;99.90
1107;DHT22;540;49.448;8.612;2023-11-19T02:35:00;9.90;99.90
1107;DHT22;540;49.448;8.612;2023-11-19T02:37:31;10.00;99.90
1107;DHT22;540;49.448;8.612;2023-11-19T02:39:59;9.80;99.90
1107;DHT22;540;49.448;8.612;2023-11-19T02:42:30;9.80;99.90
1107;DHT22;540;49.448;8.612;2023-11-19T02:44:58;9.80;99.90
1107;DHT22;540;49.448;8.612;2023-11-19T02:47:27;9.50;99.90
1107;DHT22;540;49.448;8.612;2023-11-19T02:49:57;9.80;99.90
1107;DHT22;540;49.448;8.612;2023-11-19T02:52:24;9.80;99.90
1107;DHT22;540;49.448;8.612;2023-11-19T02:54:52;10.00;99.90
1107;DHT22;540;49.448;8.612;2023-11-19T02:57:20;9.70;99.90
1107;DHT22;540;49.448;8.612;2023-11-19T02:59:49;9.90;99.90
1107;DHT22;540;49.448;8.612;2023-11-19T03:02:17;10.20;99.90
1107;DHT22;540;49.448;8.612;2023-11-19T03:04:46;10.00;99.90
1107;DHT22;540;49.448;8.612;2023-11-19T03:07:14;10.00;99.90
1107;DHT22;540;49.448;8.612;2023-11-19T03:09:42;10.00;99.90
1107;DHT22;540;49.448;8.612;2023-11-19T03:12:10;10.00;99.90
1107;DHT22;540;49.448;8.612;2023-11-19T03:14:38;10.40;99.90
1107;DHT22;540;49.448;8.612;2023-11-19T03:17:06;10.00;99.90
1107;DHT22;540;49.448;8.612;2023-11-19T03:19:36;10.00;99.90
1107;DHT22;540;49.448;8.612;2023-11-19T03:22:05;10.10;99.90
1107;DHT22;540;49.448;8.612;2023-11-19T03:24:33;10.30;99.90
1107;DHT22;540;49.448;8.612;2023-11-19T03:27:02;10.20;99.90
1107;DHT22;540;49.448;8.612;2023-11-19T03:29:30;9.70;99.90
1107;DHT22;540;49.448;8.612;2023-11-19T03:31:59;10.10;99.90
1107;DHT22;540;49.448;8.612;2023-11-19T03:34:27;10.30;99.90
1107;DHT22;540;49.448;8.612;2023-11-19T03:36:55;10.60;99.90
1107;DHT22;540;49.448;8.612;2023-11-19T03:39:25;10.30;99.90
1107;DHT22;540;49.448;8.612;2023-11-19T03:41:53;10.20;99.90
1107;DHT22;540;49.448;8.612;2023-11-19T03:44:22;10.30;99.90
1107;DHT22;540;49.448;8.612;2023-11-19T03:46:53;10.30;99.90
1107;DHT22;540;49.448;8.612;2023-11-19T03:49:21;10.40;99.90
1107;DHT22;540;49.448;8.612;2023-11-19T03:51:50;10.40;99.90
1107;DHT22;540;49.448;8.612;2023-11-19T03:54:18;10.70;99.90
1107;DHT22;540;49.448;8.612;2023-11-19T03:56:48;10.40;99.90
1107;DHT22;540;49.448;8.612;2023-11-19T03:59:16;10.50;99.90
1107;DHT22;540;49.448;8.612;2023-11-19T04:01:45;10.40;99.90
1107;DHT22;540;49.448;8.612;2023-11-19T04:04:14;10.60;99.90
1107;DHT22;540;49.448;8.612;2023-11-19T04:06:42;10.70;99.90
1107;DHT22;540;49.448;8.612;2023-11-19T04:09:09;10.70;99.90
1107;DHT22;540;49.448;8.612;2023-11-19T04:11:37;10.40;99.90
1107;DHT22;540;49.448;8.612;2023-11-19T04:14:07;10.60;99.90
1107;DHT22;540;49.448;8.612;2023-11-19T04:16:36;10.80;99.90
1107;DHT22;540;49.448;8.612;2023-11-19T04:19:04;10.70;99.90
1107;DHT22;540;49.448;8.612;2023-11-19T04:21:33;10.70;99.90
1107;DHT22;540;49.448;8.612;2023-11-19T04:24:00;10.90;99.90
1107;DHT22;540;49.448;8.612;2023-11-19T04:26:28;10.90;99.90
1107;DHT22;540;49.448;8.612;2023-11-19T04:28:57;10.80;99.90
1107;DHT22;540;49.448;8.612;2023-11-19T04:31:30;10.80;99.90
1107;DHT22;540;49.448;8.612;2023-11-19T04:33:59;10.80;99.90
1107;DHT22;540;49.448;8.612;2023-11-19T04:36:27;10.80;99.90
1107;DHT22;540;49.448;8.612;2023-11-19T04:38:56;11.00;99.90
1107;DHT22;540;49.448;8.612;2023-11-19T04:41:26;10.80;99.90
1107;DHT22;540;49.448;8.612;2023-11-19T04:43:55;10.80;99.90
1107;DHT22;540;49.448;8.612;2023-11-19T04:46:23;10.30;99.90
1107;DHT22;540;49.448;8.612;2023-11-19T04:48:52;11.00;99.90
1107;DHT22;540;49.448;8.612;2023-11-19T04:51:20;10.90;99.90
1107;DHT22;540;49.448;8.612;2023-11-19T04:53:48;11.00;99.90
1107;DHT22;540;49.448;8.612;2023-11-19T04:56:17;11.20;99.90
1107;DHT22;540;49.448;8.612;2023-11-19T04:58:46;10.90;99.90
1107;DHT22;540;49.448;8.612;2023-11-19T05:01:14;10.80;99.90
1107;DHT22;540;49.448;8.612;2023-11-19T05:03:44;11.00;99.90
1107;DHT22;540;49.448;8.612;2023-11-19T05:06:14;11.10;99.90
1107;DHT22;540;49.448;8.612;2023-11-19T05:08:44;11.00;99.90
1107;DHT22;540;49.448;8.612;2023-11-19T05:11:12;10.90;99.90
1107;DHT22;540;49.448;8.612;2023-11-19T05:13:44;11.00;99.90
1107;DHT22;540;49.448;8.612;2023-11-19T05:16:12;11.10;99.90
1107;DHT22;540;49.448;8.612;2023-11-19T05:18:41;11.00;99.90
1107;DHT22;540;49.448;8.612;2023-11-19T05:21:10;10.60;99.90
1107;DHT22;540;49.448;8.612;2023-11-19T05:23:39;11.40;99.90
1107;DHT22;540;49.448;8.612;2023-11-19T05:26:08;11.00;99.90
1107;DHT22;540;49.448;8.612;2023-11-19T05:28:38;11.30;99.90
1107;DHT22;540;49.448;8.612;2023-11-19T05:31:05;11.20;99.90
1107;DHT22;540;49.448;8.612;2023-11-19T05:33:34;11.30;99.90
1107;DHT22;540;49.448;8.612;2023-11-19T05:36:02;11.20;99.90
1107;DHT22;540;49.448;8.612;2023-11-19T05:38:30;11.50;99.90
1107;DHT22;540;49.448;8.612;2023-11-19T05:40:59;11.30;99.90
1107;DHT22;540;49.448;8.612;2023-11-19T05:43:27;11.40;99.90
1107;DHT22;540;49.448;8.612;2023-11-19T05:45:54;11.00;99.90
1107;DHT22;540;49.448;8.612;2023-11-19T05:48:23;11.10;99.90
1107;DHT22;540;49.448;8.612;2023-11-19T05:50:51;11.30;99.90
1107;DHT22;540;49.448;8.612;2023-11-19T05:53:20;11.40;99.90
1107;DHT22;540;49.448;8.612;2023-11-19T05:55:47;11.20;99.90
1107;DHT22;540;49.448;8.612;2023-11-19T05:58:24;11.40;99.90
1107;DHT22;540;49.448;8.612;2023-11-19T06:00:55;11.70;99.90
1107;DHT22;540;49.448;8.612;2023-11-19T06:03:23;11.40;99.90
1107;DHT22;540;49.448;8.612;2023-11-19T06:05:51;11.30;99.90
1107;DHT22;540;49.448;8.612;2023-11-19T06:08:21;11.60;99.90
1107;DHT22;540;49.448;8.612;2023-11-19T06:10:51;11.50;99.90
1107;DHT22;540;49.448;8.612;2023-11-19T06:13:21;11.50;99.90
1107;DHT22;540;49.448;8.612;2023-11-19T06:15:54;11.30;99.90
1107;DHT22;540;49.448;8.612;2023-11-19T06:18:21;11.00;99.90
1107;DHT22;540;49.448;8.612;2023-11-19T06:20:50;11.80;99.90
1107;DHT22;540;49.448;8.612;2023-11-19T06:23:18;11.80;99.90
1107;DHT22;540;49.448;8.612;2023-11-19T06:25:46;11.60;99.90
1107;DHT22;540;49.448;8.612;2023-11-19T06:28:14;11.50;99.90
1107;DHT22;540;49.448;8.612;2023-11-19T06:30:42;11.60;99.90
1107;DHT22;540;49.448;8.612;2023-11-19T06:33:14;11.80;99.90
1107;DHT22;540;49.448;8.612;2023-11-19T06:35:42;11.70;99.90
1107;DHT22;540;49.448;8.612;2023-11-19T06:38:10;11.80;99.90
1107;DHT22;540;49.448;8.612;2023-11-19T06:40:38;12.00;99.90
1107;DHT22;540;49.448;8.612;2023-11-19T06:43:07;12.00;99.90
1107;DHT22;540;49.448;8.612;2023-11-19T06:45:36;11.40;99.90
1107;DHT22;540;49.448;8.612;2023-11-19T06:48:04;12.10;99.90
1107;DHT22;540;49.448;8.612;2023-11-19T06:50:34;12.10;99.90
1107;DHT22;540;49.448;8.612;2023-11-19T06:53:02;11.80;99.90
1107;DHT22;540;49.448;8.612;2023-11-19T06:55:31;11.80;99.90
1107;DHT22;540;49.448;8.612;2023-11-19T06:58:00;12.10;99.90
1107;DHT22;540;49.448;8.612;2023-11-19T07:00:29;12.10;99.90
1107;DHT22;540;49.448;8.612;2023-11-19T07:02:59;12.00;99.90
1107;DHT22;540;49.448;8.612;2023-11-19T07:05:27;12.10;99.90
1107;DHT22;540;49.448;8.612;2023-11-19T07:08:00;11.90;99.90
1107;DHT22;540;49.448;8.612;2023-11-19T07:10:28;12.20;99.90
1107;DHT22;540;49.448;8.612;2023-11-19T07:12:56;11.90;99.90
1107;DHT22;540;49.448;8.612;2023-11-19T07:15:35;12.00;99.90
1107;DHT22;540;49.448;8.612;2023-11-19T07:18:03;12.00;99.90
1107;DHT22;540;49.448;8.612;2023-11-19T07:20:31;12.10;99.90
1107;DHT22;540;49.448;8.612;2023-11-19T07:23:01;12.00;99.90
1107;DHT22;540;49.448;8.612;2023-11-19T07:25:29;12.20;99.90
1107;DHT22;540;49.448;8.612;2023-11-19T07:27:57;12.40;99.90
1107;DHT22;540;49.448;8.612;2023-11-19T07:30:24;12.30;99.90
1107;DHT22;540;49.448;8.612;2023-11-19T07:32:53;12.40;99.90
1107;DHT22;540;49.448;8.612;2023-11-19T07:35:21;12.40;99.90
1107;DHT22;540;49.448;8.612;2023-11-19T07:37:49;12.20;99.90
1107;DHT22;540;49.448;8.612;2023-11-19T07:40:18;12.20;99.90
1107;DHT22;540;49.448;8.612;2023-11-19T07:42:46;12.50;99.90
1107;DHT22;540;49.448;8.612;2023-11-19T07:45:14;12.40;99.90
1107;DHT22;540;49.448;8.612;2023-11-19T07:47:42;12.20;99.90
1107;DHT22;540;49.448;8.612;2023-11-19T07:50:11;12.70;99.90
1107;DHT22;540;49.448;8.612;2023-11-19T07:52:40;12.40;99.90
1107;DHT22;540;49.448;8.612;2023-11-19T07:55:08;12.50;99.90
1107;DHT22;540;49.448;8.612;2023-11-19T07:57:37;12.50;99.90
1107;DHT22;540;49.448;8.612;2023-11-19T08:00:06;12.40;99.90
1107;DHT22;540;49.448;8.612;2023-11-19T08:02:39;12.20;99.90
1107;DHT22;540;49.448;8.612;2023-11-19T08:05:07;11.80;99.90
1107;DHT22;540;49.448;8.612;2023-11-19T08:07:35;12.40;99.90
1107;DHT22;540;49.448;8.612;2023-11-19T08:10:04;12.30;99.90
1107;DHT22;540;49.448;8.612;2023-11-19T08:12:38;12.40;99.90
1107;DHT22;540;49.448;8.612;2023-11-19T08:15:06;12.50;99.90
1107;DHT22;540;49.448;8.612;2023-11-19T08:17:34;12.30;99.90
1107;DHT22;540;49.448;8.612;2023-11-19T08:20:04;12.20;99.90
1107;DHT22;540;49.448;8.612;2023-11-19T08:22:37;12.40;99.90
1107;DHT22;540;49.448;8.612;2023-11-19T08:25:05;12.30;99.90
1107;DHT22;540;49.448;8.612;2023-11-19T08:27:34;12.40;99.90
1107;DHT22;540;49.448;8.612;2023-11-19T08:30:04;12.40;99.90
1107;DHT22;540;49.448;8.612;2023-11-19T08:32:34;12.40;99.90
1107;DHT22;540;49.448;8.612;2023-11-19T08:35:02;12.40;99.90
1107;DHT22;540;49.448;8.612;2023-11-19T08:37:30;12.30;99.90
1107;DHT22;540;49.448;8.612;2023-11-19T08:39:58;13.00;99.90
1107;DHT22;540;49.448;8.612;2023-11-19T08:42:27;13.30;99.90
1107;DHT22;540;49.448;8.612;2023-11-19T08:44:56;13.50;99.90
1107;DHT22;540;49.448;8.612;2023-11-19T08:47:25;13.80;99.90
1107;DHT22;540;49.448;8.612;2023-11-19T08:49:53;14.30;99.90
1107;DHT22;540;49.448;8.612;2023-11-19T08:52:24;14.20;99.90
1107;DHT22;540;49.448;8.612;2023-11-19T08:54:52;15.10;99.90
1107;DHT22;540;49.448;8.612;2023-11-19T08:57:20;15.00;99.90
1107;DHT22;540;49.448;8.612;2023-11-19T08:59:49;15.30;99.90
1107;DHT22;540;49.448;8.612;2023-11-19T09:02:17;15.60;99.90
1107;DHT22;540;49.448;8.612;2023-11-19T09:04:48;14.90;99.90
1107;DHT22;540;49.448;8.612;2023-11-19T09:07:21;14.80;99.90
1107;DHT22;540;49.448;8.612;2023-11-19T09:09:51;14.40;99.90
1107;DHT22;540;49.448;8.612;2023-11-19T09:12:20;14.30;99.90
1107;DHT22;540;49.448;8.612;2023-11-19T09:14:50;14.00;99.90
1107;DHT22;540;49.448;8.612;2023-11-19T09:17:20;13.90;99.90
1107;DHT22;540;49.448;8.612;2023-11-19T09:19:50;13.80;99.90
1107;DHT22;540;49.448;8.612;2023-11-19T09:22:19;13.90;99.90
1107;DHT22;540;49.448;8.612;2023-11-19T09:24:48;13.60;99.90
1107;DHT22;540;49.448;8.612;2023-11-19T09:27:17;13.70;99.90
1107;DHT22;540;49.448;8.612;2023-11-19T09:29:46;13.70;99.90
1107;DHT22;540;49.448;8.612;2023-11-19T09:32:17;13.70;99.90
1107;DHT22;540;49.448;8.612;2023-11-19T09:34:46;13.80;99.90
1107;DHT22;540;49.448;8.612;2023-11-19T09:37:15;14.10;99.90
1107;DHT22;540;49.448;8.612;2023-11-19T09:39:46;14.10;99.90
1107;DHT22;540;49.448;8.612;2023-11-19T09:42:14;14.30;99.90
1107;DHT22;540;49.448;8.612;2023-11-19T09:44:42;14.20;99.90
1107;DHT22;540;49.448;8.612;2023-11-19T09:47:11;13.90;99.90
1107;DHT22;540;49.448;8.612;2023-11-19T09:49:41;14.20;99.90
1107;DHT22;540;49.448;8.612;2023-11-19T09:52:09;14.10;99.90
1107;DHT22;540;49.448;8.612;2023-11-19T09:54:39;14.00;99.90
1107;DHT22;540;49.448;8.612;2023-11-19T09:57:07;13.90;99.90
1107;DHT22;540;49.448;8.612;2023-11-19T09:59:38;13.90;99.90
1107;DHT22;540;49.448;8.612;2023-11-19T10:02:07;14.20;99.90
1107;DHT22;540;49.448;8.612;2023-11-19T10:04:38;14.00;99.90
1107;DHT22;540;49.448;8.612;2023-11-19T10:07:07;14.00;99.90
1107;DHT22;540;49.448;8.612;2023-11-19T10:09:35;13.70;99.90
1107;DHT22;540;49.448;8.612;2023-11-19T10:12:05;13.80;99.90
1107;DHT22;540;49.448;8.612;2023-11-19T10:14:34;14.20;99.90
1107;DHT22;540;49.448;8.612;2023-11-19T10:17:07;14.00;99.90
1107;DHT22;540;49.448;8.612;2023-11-19T10:19:36;14.10;99.90
1107;DHT22;540;49.448;8.612;2023-11-19T10:22:04;14.40;99.90
1107;DHT22;540;49.448;8.612;2023-11-19T10:24:33;14.70;99.90
1107;DHT22;540;49.448;8.612;2023-11-19T10:27:08;15.10;99.90
1107;DHT22;540;49.448;8.612;2023-11-19T10:29:40;15.10;99.90
1107;DHT22;540;49.448;8.612;2023-11-19T10:32:07;15.60;99.90
1107;DHT22;540;49.448;8.612;2023-11-19T10:34:53;15.70;99.90
1107;DHT22;540;49.448;8.612;2023-11-19T10:37:32;15.90;99.90
1107;DHT22;540;49.448;8.612;2023-11-19T10:40:02;16.00;99.90
1107;DHT22;540;49.448;8.612;2023-11-19T10:42:34;15.90;99.90
1107;DHT22;540;49.448;8.612;2023-11-19T10:45:03;15.80;99.90
1107;DHT22;540;49.448;8.612;2023-11-19T10:47:32;16.00;99.90
1107;DHT22;540;49.448;8.612;2023-11-19T10:50:06;15.90;99.90
1107;DHT22;540;49.448;8.612;2023-11-19T10:52:37;15.80;99.90
1107;DHT22;540;49.448;8.612;2023-11-19T10:55:07;16.00;99.90
1107;DHT22;540;49.448;8.612;2023-11-19T10:57:40;16.20;99.90
1107;DHT22;540;49.448;8.612;2023-11-19T11:00:16;16.10;99.90
1107;DHT22;540;49.448;8.612;2023-11-19T11:02:48;16.00;99.90
1107;DHT22;540;49.448;8.612;2023-11-19T11:05:19;15.90;99.90
1107;DHT22;540;49.448;8.612;2023-11-19T11:07:51;15.70;99.90
1107;DHT22;540;49.448;8.612;2023-11-19T11:10:25;16.50;99.90
1107;DHT22;540;49.448;8.612;2023-11-19T11:12:56;16.00;99.90
1107;DHT22;540;49.448;8.612;2023-11-19T11:15:27;15.90;99.90
1107;DHT22;540;49.448;8.612;2023-11-19T11:17:59;15.70;99.90
1107;DHT22;540;49.448;8.612;2023-11-19T11:20:29;15.50;99.90
1107;DHT22;540;49.448;8.612;2023-11-19T11:23:18;15.50;99.90
1107;DHT22;540;49.448;8.612;2023-11-19T11:25:54;15.50;99.90
1107;DHT22;540;49.448;8.612;2023-11-19T11:28:34;15.40;99.90
1107;DHT22;540;49.448;8.612;2023-11-19T11:31:12;15.10;99.90
1107;DHT22;540;49.448;8.612;2023-11-19T11:34:10;15.30;99.90
1107;DHT22;540;49.448;8.612;2023-11-19T11:36:48;15.30;99.90
1107;DHT22;540;49.448;8.612;2023-11-19T11:39:17;15.50;99.90
1107;DHT22;540;49.448;8.612;2023-11-19T11:42:31;15.30;99.90
1107;DHT22;540;49.448;8.612;2023-11-19T11:45:01;15.50;99.90
1107;DHT22;540;49.448;8.612;2023-11-19T11:50:51;16.80;99.90
1107;DHT22;540;49.448;8.612;2023-11-19T11:53:20;17.20;96.60
1107;DHT22;540;49.448;8.612;2023-11-19T11:55:54;18.00;95.30
1107;DHT22;540;49.448;8.612;2023-11-19T11:58:27;18.40;92.90
1107;DHT22;540;49.448;8.612;2023-11-19T12:00:57;18.50;91.50
1107;DHT22;540;49.448;8.612;2023-11-19T12:03:28;18.70;88.40
1107;DHT22;540;49.448;8.612;2023-11-19T12:05:57;18.40;88.30
1107;DHT22;540;49.448;8.612;2023-11-19T12:08:28;18.70;86.60
1107;DHT22;540;49.448;8.612;2023-11-19T12:10:57;19.10;85.60
1107;DHT22;540;49.448;8.612;2023-11-19T12:13:46;18.80;84.90
1107;DHT22;540;49.448;8.612;2023-11-19T12:16:17;19.30;82.00
1107;DHT22;540;49.448;8.612;2023-11-19T12:18:45;19.00;80.60
1107;DHT22;540;49.448;8.612;2023-11-19T12:21:28;19.30;79.50
1107;DHT22;540;49.448;8.612;2023-11-19T12:23:58;19.10;80.10
1107;DHT22;540;49.448;8.612;2023-11-19T12:26:32;18.10;82.90
1107;DHT22;540;49.448;8.612;2023-11-19T12:29:01;18.10;86.00
1107;DHT22;540;49.448;8.612;2023-11-19T12:31:35;17.50;87.80
1107;DHT22;540;49.448;8.612;2023-11-19T12:34:10;17.30;89.40
1107;DHT22;540;49.448;8.612;2023-11-19T12:36:40;17.20;90.70
1107;DHT22;540;49.448;8.612;2023-11-19T12:39:11;17.00;91.20
1107;DHT22;540;49.448;8.612;2023-11-19T12:41:53;16.70;91.10
1107;DHT22;540;49.448;8.612;2023-11-19T12:44:22;16.40;91.00
1107;DHT22;540;49.448;8.612;2023-11-19T12:47:04;16.80;92.00
1107;DHT22;540;49.448;8.612;2023-11-19T12:49:33;17.00;91.50
1107;DHT22;540;49.448;8.612;2023-11-19T12:52:01;17.20;91.60
1107;DHT22;540;49.448;8.612;2023-11-19T12:54:36;17.40;91.30
1107;DHT22;540;49.448;8.612;2023-11-19T12:57:05;17.80;89.70
1107;DHT22;540;49.448;8.612;2023-11-19T12:59:33;18.30;86.30
1107;DHT22;540;49.448;8.612;2023-11-19T13:02:01;18.70;81.10
1107;DHT22;540;49.448;8.612;2023-11-19T13:04:33;18.80;80.40
1107;DHT22;540;49.448;8.612;2023-11-19T13:07:01;19.00;80.70
1107;DHT22;540;49.448;8.612;2023-11-19T13:09:32;19.20;80.50
1107;DHT22;540;49.448;8.612;2023-11-19T13:12:00;19.50;78.80
1107;DHT22;540;49.448;8.612;2023-11-19T13:14:39;18.80;76.00
1107;DHT22;540;49.448;8.612;2023-11-19T13:17:08;19.00;76.90
1107;DHT22;540;49.448;8.612;2023-11-19T13:19:37;18.90;77.20
1107;DHT22;540;49.448;8.612;2023-11-19T13:22:05;18.90;75.80
1107;DHT22;540;49.448;8.612;2023-11-19T13:24:33;19.00;75.10
1107;DHT22;540;49.448;8.612;2023-11-19T13:27:02;19.00;75.10
1107;DHT22;540;49.448;8.612;2023-11-19T13:29:30;19.20;74.30
1107;DHT22;540;49.448;8.612;2023-11-19T13:32:00;19.00;72.90
1107;DHT22;540;49.448;8.612;2023-11-19T13:34:30;19.60;72.10
1107;DHT22;540;49.448;8.612;2023-11-19T13:37:00;19.70;70.80
1107;DHT22;540;49.448;8.612;2023-11-19T13:39:27;19.60;67.40
1107;DHT22;540;49.448;8.612;2023-11-19T13:41:55;19.60;68.00
1107;DHT22;540;49.448;8.612;2023-11-19T13:44:39;19.60;69.00
1107;DHT22;540;49.448;8.612;2023-11-19T13:47:09;18.90;69.20
1107;DHT22;540;49.448;8.612;2023-11-19T13:49:37;19.00;70.60
1107;DHT22;540;49.448;8.612;2023-11-19T13:52:06;18.70;71.10
1107;DHT22;540;49.448;8.612;2023-11-19T13:54:34;18.60;71.20
1107;DHT22;540;49.448;8.612;2023-11-19T13:57:02;18.60;71.90
1107;DHT22;540;49.448;8.612;2023-11-19T13:59:31;18.70;72.10
1107;DHT22;540;49.448;8.612;2023-11-19T14:01:59;18.80;72.30
1107;DHT22;540;49.448;8.612;2023-11-19T14:04:26;18.70;72.10
1107;DHT22;540;49.448;8.612;2023-11-19T14:06:54;18.10;72.70
1107;DHT22;540;49.448;8.612;2023-11-19T14:09:23;17.80;73.80
1107;DHT22;540;49.448;8.612;2023-11-19T14:11:52;17.70;75.60
1107;DHT22;540;49.448;8.612;2023-11-19T14:14:20;17.20;76.30
1107;DHT22;540;49.448;8.612;2023-11-19T14:16:48;17.40;77.10
1107;DHT22;540;49.448;8.612;2023-11-19T14:19:16;17.10;77.60
1107;DHT22;540;49.448;8.612;2023-11-19T14:21:44;16.90;76.30
1107;DHT22;540;49.448;8.612;2023-11-19T14:24:12;16.70;77.40
1107;DHT22;540;49.448;8.612;2023-11-19T14:26:41;16.50;78.10
1107;DHT22;540;49.448;8.612;2023-11-19T14:29:09;16.50;79.20
1107;DHT22;540;49.448;8.612;2023-11-19T14:31:37;16.20;79.90
1107;DHT22;540;49.448;8.612;2023-11-19T14:34:06;16.30;80.10
1107;DHT22;540;49.448;8.612;2023-11-19T14:36:34;16.40;80.40
1107;DHT22;540;49.448;8.612;2023-11-19T14:39:02;16.30;79.80
1107;DHT22;540;49.448;8.612;2023-11-19T14:41:30;15.60;79.10
1107;DHT22;540;49.448;8.612;2023-11-19T14:44:01;16.10;80.50
1107;DHT22;540;49.448;8.612;2023-11-19T14:46:30;16.00;81.30
1107;DHT22;540;49.448;8.612;2023-11-19T14:48:57;16.40;82.90
1107;DHT22;540;49.448;8.612;2023-11-19T14:51:25;16.00;82.20
1107;DHT22;540;49.448;8.612;2023-11-19T14:53:53;16.00;82.60
1107;DHT22;540;49.448;8.612;2023-11-19T14:56:21;15.40;82.10
1107;DHT22;540;49.448;8.612;2023-11-19T14:58:49;16.00;83.60
1107;DHT22;540;49.448;8.612;2023-11-19T15:01:19;15.90;83.80
1107;DHT22;540;49.448;8.612;2023-11-19T15:03:47;15.90;84.20
1107;DHT22;540;49.448;8.612;2023-11-19T15:06:18;15.30;84.40
1107;DHT22;540;49.448;8.612;2023-11-19T15:08:45;15.70;85.80
1107;DHT22;540;49.448;8.612;2023-11-19T15:11:13;15.50;85.10
1107;DHT22;540;49.448;8.612;2023-11-19T15:13:41;15.90;86.50
1107;DHT22;540;49.448;8.612;2023-11-19T15:16:09;15.70;87.40
1107;DHT22;540;49.448;8.612;2023-11-19T15:18:40;15.80;89.10
1107;DHT22;540;49.448;8.612;2023-11-19T15:21:08;15.60;89.40
1107;DHT22;540;49.448;8.612;2023-11-19T15:23:36;15.70;89.40
1107;DHT22;540;49.448;8.612;2023-11-19T15:26:04;15.50;90.30
1107;DHT22;540;49.448;8.612;2023-11-19T15:28:33;15.50;89.60
1107;DHT22;540;49.448;8.612;2023-11-19T15:31:01;15.60;90.50
1107;DHT22;540;49.448;8.612;2023-11-19T15:33:29;15.40;90.60
1107;DHT22;540;49.448;8.612;2023-11-19T15:35:58;15.20;90.80
1107;DHT22;540;49.448;8.612;2023-11-19T15:38:27;15.40;91.30
1107;DHT22;540;49.448;8.612;2023-11-19T15:40:55;15.30;91.40
1107;DHT22;540;49.448;8.612;2023-11-19T15:43:23;15.00;91.30
1107;DHT22;540;49.448;8.612;2023-11-19T15:45:51;15.10;91.60
1107;DHT22;540;49.448;8.612;2023-11-19T15:48:19;15.40;92.00
1107;DHT22;540;49.448;8.612;2023-11-19T15:50:48;15.10;92.10
1107;DHT22;540;49.448;8.612;2023-11-19T15:53:17;15.10;92.00
1107;DHT22;540;49.448;8.612;2023-11-19T15:55:45;15.10;92.20
1107;DHT22;540;49.448;8.612;2023-11-19T15:58:14;14.60;91.90
1107;DHT22;540;49.448;8.612;2023-11-19T16:00:41;15.00;90.20
1107;DHT22;540;49.448;8.612;2023-11-19T16:03:12;15.00;89.00
1107;DHT22;540;49.448;8.612;2023-11-19T16:05:41;15.10;88.40
1107;DHT22;540;49.448;8.612;2023-11-19T16:08:09;14.80;87.60
1107;DHT22;540;49.448;8.612;2023-11-19T16:10:39;15.10;87.50
1107;DHT22;540;49.448;8.612;2023-11-19T16:13:09;14.90;86.80
1107;DHT22;540;49.448;8.612;2023-11-19T16:15:37;15.00;86.40
1107;DHT22;540;49.448;8.612;2023-11-19T16:18:05;15.00;86.30
1107;DHT22;540;49.448;8.612;2023-11-19T16:20:36;15.10;87.10
1107;DHT22;540;49.448;8.612;2023-11-19T16:23:04;14.80;87.30
1107;DHT22;540;49.448;8.612;2023-11-19T16:25:32;14.70;88.10
1107;DHT22;540;49.448;8.612;2023-11-19T16:28:03;15.00;88.60
1107;DHT22;540;49.448;8.612;2023-11-19T16:30:34;14.60;88.60
1107;DHT22;540;49.448;8.612;2023-11-19T16:33:02;14.80;89.10
1107;DHT22;540;49.448;8.612;2023-11-19T16:35:32;14.60;88.50
1107;DHT22;540;49.448;8.612;2023-11-19T16:38:01;14.30;88.80
1107;DHT22;540;49.448;8.612;2023-11-19T16:40:29;14.90;88.70